Tiverton, Rhode Island
Current Conditions -  °F | °C
As of 1:35 PM on Wednesday 26 Nov 2014 (Local Time) from KUUU Reporting Station
Heavy Rain Heavy Rain  
Wind Chill: 29°   Ceiling: 500
Heat Index: 38°   Visibility: 1.7mi
Dew Point: 35°   Wind: 17mph
Humidity: 89%   Direction: 10°N
Pressure: 29.98"   Gusts: NA
Location:  41.62°N, 71.21°W
Report Text: KUUU 261835Z AUTO 01015KT 1 3/4SM +RA BR BKN005 OVC019 03/02 A2998 RMK AO2 P0008 T00330017
Loading
Personal Weather Stations






























Interactive Weather Map New forecast layout! Learn more

10-Day Weather Forecast

Advertisements
Track Severe Weather on mobile